createdAt,value
2023-03-03T00:00:48.647Z,99.40
2023-03-03T00:01:50.654Z,99.40
2023-03-03T00:02:52.671Z,99.50
2023-03-03T00:03:55.613Z,99.40
2023-03-03T00:05:03.794Z,99.40
2023-03-03T00:06:19.341Z,99.70
2023-03-03T00:07:29.525Z,99.50
2023-03-03T00:08:32.709Z,99.40
2023-03-03T00:09:40.788Z,99.50
2023-03-03T00:10:42.915Z,99.60
2023-03-03T00:11:58.198Z,99.40
2023-03-03T00:13:00.643Z,99.60
2023-03-03T00:14:03.030Z,99.50
2023-03-03T00:15:22.079Z,99.50
2023-03-03T00:16:26.050Z,99.60
2023-03-03T00:17:30.699Z,99.50
2023-03-03T00:18:47.931Z,99.50
2023-03-03T00:19:53.623Z,99.60
2023-03-03T00:21:05.433Z,99.60
2023-03-03T00:22:18.061Z,99.60
2023-03-03T00:23:44.999Z,99.60
2023-03-03T00:24:52.665Z,99.70
2023-03-03T00:26:01.525Z,99.50
2023-03-03T00:27:28.564Z,99.50
2023-03-03T00:28:48.792Z,99.60
2023-03-03T00:29:59.047Z,99.60
2023-03-03T00:31:09.593Z,99.60
2023-03-03T00:32:24.494Z,99.50
2023-03-03T00:33:42.730Z,99.40
2023-03-03T00:34:56.605Z,99.50
2023-03-03T00:36:16.845Z,99.40
2023-03-03T00:37:32.174Z,99.60
2023-03-03T00:38:37.010Z,99.60
2023-03-03T00:39:39.707Z,99.50
2023-03-03T00:40:42.087Z,99.40
2023-03-03T00:41:44.145Z,99.30
2023-03-03T00:42:50.832Z,99.30
2023-03-03T00:43:53.792Z,99.30
2023-03-03T00:45:00.528Z,99.20
2023-03-03T00:46:02.770Z,98.90
2023-03-03T00:47:31.011Z,98.70
2023-03-03T00:48:42.616Z,98.60
2023-03-03T00:49:50.322Z,98.50
2023-03-03T00:50:55.204Z,98.40
2023-03-03T00:51:57.267Z,98.60
2023-03-03T00:53:15.382Z,98.40
2023-03-03T00:54:28.438Z,98.50
2023-03-03T00:55:38.406Z,98.30
2023-03-03T00:56:53.950Z,98.20
2023-03-03T00:57:57.331Z,98.30
2023-03-03T00:58:59.712Z,98.30
2023-03-03T01:00:04.723Z,98.20
2023-03-03T01:01:09.704Z,98.20
2023-03-03T01:02:15.138Z,98.00
2023-03-03T01:03:25.267Z,98.00
2023-03-03T01:04:30.014Z,98.00
2023-03-03T01:05:33.315Z,97.80
2023-03-03T01:06:35.406Z,97.70
2023-03-03T01:07:37.494Z,97.80
2023-03-03T01:08:42.090Z,97.80
2023-03-03T01:09:48.297Z,97.80
2023-03-03T01:10:55.689Z,97.60
2023-03-03T01:12:00.341Z,97.70
2023-03-03T01:13:11.733Z,97.60
2023-03-03T01:14:16.933Z,97.60
2023-03-03T01:15:22.244Z,97.40
2023-03-03T01:16:29.898Z,97.50
2023-03-03T01:17:36.949Z,97.40
2023-03-03T01:18:42.206Z,97.30
2023-03-03T01:19:44.340Z,97.30
2023-03-03T01:20:46.442Z,97.20
2023-03-03T01:21:48.745Z,97.00
2023-03-03T01:22:51.982Z,96.80
2023-03-03T01:23:54.393Z,96.80
2023-03-03T01:24:57.978Z,96.80
2023-03-03T01:26:01.023Z,96.80
2023-03-03T01:27:03.175Z,96.80
2023-03-03T01:28:05.731Z,96.70
2023-03-03T01:29:08.041Z,96.70
2023-03-03T01:30:10.822Z,96.50
2023-03-03T01:31:13.030Z,96.60
2023-03-03T01:32:16.776Z,96.50
2023-03-03T01:33:19.609Z,96.70
2023-03-03T01:34:21.975Z,96.50
2023-03-03T01:35:24.351Z,96.40
2023-03-03T01:36:28.709Z,96.40
2023-03-03T01:37:36.497Z,96.50
2023-03-03T01:38:39.687Z,96.40
2023-03-03T01:39:44.339Z,96.30
2023-03-03T01:40:56.178Z,96.30
2023-03-03T01:41:58.572Z,96.40
2023-03-03T01:43:11.575Z,96.10
2023-03-03T01:44:17.679Z,96.70
2023-03-03T01:45:25.375Z,96.10
2023-03-03T01:46:52.130Z,96.40
2023-03-03T01:48:32.695Z,96.30
2023-03-03T01:49:57.899Z,96.30
2023-03-03T01:51:06.571Z,96.20
2023-03-03T01:52:27.745Z,96.10
2023-03-03T01:53:51.890Z,96.20
2023-03-03T01:55:13.912Z,96.00
2023-03-03T01:56:16.400Z,96.20
2023-03-03T01:57:26.247Z,96.20
2023-03-03T01:58:32.382Z,96.10
2023-03-03T01:59:38.196Z,96.10
2023-03-03T02:00:44.098Z,96.10
2023-03-03T02:01:49.491Z,96.00
2023-03-03T02:02:55.605Z,96.00
2023-03-03T02:04:02.245Z,96.00
2023-03-03T02:05:05.029Z,96.00
2023-03-03T02:06:14.126Z,96.00
2023-03-03T02:07:18.710Z,96.00
2023-03-03T02:08:26.351Z,96.00
2023-03-03T02:09:40.624Z,96.40
2023-03-03T02:10:45.012Z,96.10
2023-03-03T02:11:54.727Z,96.10
2023-03-03T02:13:00.021Z,96.10
2023-03-03T02:14:02.106Z,96.10
2023-03-03T02:15:17.176Z,96.10
2023-03-03T02:16:19.936Z,96.30
2023-03-03T02:17:22.135Z,96.20
2023-03-03T02:18:24.910Z,96.20
2023-03-03T02:19:32.060Z,96.40
2023-03-03T02:20:54.369Z,96.40
2023-03-03T02:21:57.388Z,96.50
2023-03-03T02:23:18.054Z,96.40
2023-03-03T02:24:32.737Z,96.70
2023-03-03T02:25:44.578Z,96.80
2023-03-03T02:26:50.576Z,97.00
2023-03-03T02:27:58.766Z,96.80
2023-03-03T02:29:01.670Z,97.10
2023-03-03T02:30:19.396Z,97.00
2023-03-03T02:32:35.122Z,97.30
2023-03-03T02:33:48.932Z,97.40
2023-03-03T02:34:52.901Z,97.50
2023-03-03T02:36:00.798Z,97.60
2023-03-03T02:37:04.206Z,97.60
2023-03-03T02:38:26.747Z,97.90
2023-03-03T02:39:30.647Z,98.00
2023-03-03T02:40:38.825Z,98.00
2023-03-03T02:42:08.460Z,98.20
2023-03-03T02:43:12.241Z,98.50
2023-03-03T02:44:19.862Z,98.50
2023-03-03T02:45:21.963Z,98.60
2023-03-03T02:46:24.637Z,98.50
2023-03-03T02:47:28.609Z,98.60
2023-03-03T02:48:31.625Z,98.60
2023-03-03T02:49:36.464Z,98.80
2023-03-03T02:50:44.071Z,99.10
2023-03-03T02:51:46.787Z,99.00
2023-03-03T02:52:48.949Z,99.30
2023-03-03T02:53:53.704Z,99.10
2023-03-03T02:54:59.998Z,99.40
2023-03-03T02:56:04.700Z,99.50
2023-03-03T02:57:09.124Z,99.40
2023-03-03T02:58:12.100Z,99.60
2023-03-03T02:59:14.820Z,99.70
2023-03-03T03:00:17.354Z,99.90
2023-03-03T03:01:20.802Z,99.90
2023-03-03T03:02:25.973Z,99.90
2023-03-03T03:03:29.604Z,99.90
2023-03-03T03:04:31.856Z,99.90
2023-03-03T03:05:34.049Z,99.90
2023-03-03T03:06:40.516Z,99.90
2023-03-03T03:07:46.203Z,99.90
2023-03-03T03:08:57.199Z,99.90
2023-03-03T03:09:59.687Z,99.90
2023-03-03T03:11:03.375Z,99.90
2023-03-03T03:12:05.671Z,99.90
2023-03-03T03:13:11.299Z,99.90
2023-03-03T03:14:15.174Z,99.90
2023-03-03T03:15:17.779Z,99.90
2023-03-03T03:16:20.394Z,99.90
2023-03-03T03:17:22.990Z,99.90
2023-03-03T03:18:27.792Z,99.90
2023-03-03T03:19:30.423Z,99.90
2023-03-03T03:20:37.716Z,99.90
2023-03-03T03:21:41.646Z,99.90
2023-03-03T03:22:45.237Z,99.90
2023-03-03T03:23:54.956Z,99.90
2023-03-03T03:24:59.119Z,99.90
2023-03-03T03:26:02.985Z,99.90
2023-03-03T03:27:06.850Z,99.90
2023-03-03T03:28:35.510Z,99.90
2023-03-03T03:29:50.701Z,99.90
2023-03-03T03:31:01.526Z,99.90
2023-03-03T03:32:15.592Z,99.90
2023-03-03T03:33:23.141Z,99.90
2023-03-03T03:34:28.052Z,99.90
2023-03-03T03:35:30.141Z,99.90
2023-03-03T03:36:32.681Z,99.90
2023-03-03T03:37:34.709Z,99.90
2023-03-03T03:38:38.588Z,99.80
2023-03-03T03:39:42.248Z,99.90
2023-03-03T03:40:44.417Z,99.90
2023-03-03T03:41:46.542Z,99.90
2023-03-03T03:42:48.724Z,99.90
2023-03-03T03:43:50.830Z,99.90
2023-03-03T03:44:55.300Z,99.90
2023-03-03T03:45:57.577Z,99.90
2023-03-03T03:47:00.079Z,99.90
2023-03-03T03:48:03.837Z,99.90
2023-03-03T03:49:07.232Z,99.90
2023-03-03T03:50:11.347Z,99.90
2023-03-03T03:51:16.289Z,99.90
2023-03-03T03:52:18.328Z,99.90
2023-03-03T03:53:20.604Z,99.90
2023-03-03T03:54:23.011Z,99.90
2023-03-03T03:55:25.715Z,99.90
2023-03-03T03:56:31.737Z,99.90
2023-03-03T03:57:35.015Z,99.90
2023-03-03T03:58:37.455Z,99.90
2023-03-03T03:59:43.202Z,99.90
2023-03-03T04:00:50.858Z,99.90
2023-03-03T04:01:58.884Z,99.90
2023-03-03T04:03:19.159Z,99.90
2023-03-03T04:04:23.657Z,99.90
2023-03-03T04:05:31.828Z,99.90
2023-03-03T04:06:38.018Z,99.90
2023-03-03T04:07:55.748Z,99.90
2023-03-03T04:09:21.818Z,99.90
2023-03-03T04:10:26.997Z,99.90
2023-03-03T04:11:29.680Z,99.90
2023-03-03T04:12:38.424Z,99.90
2023-03-03T04:13:41.587Z,99.90
2023-03-03T04:14:43.973Z,99.90
2023-03-03T04:15:55.925Z,99.90
2023-03-03T04:16:59.117Z,99.90
2023-03-03T04:18:01.695Z,99.90
2023-03-03T04:19:07.028Z,99.90
2023-03-03T04:20:19.591Z,99.90
2023-03-03T04:21:34.609Z,99.90
2023-03-03T04:22:43.186Z,99.90
2023-03-03T04:23:50.285Z,99.90
2023-03-03T04:24:59.521Z,99.90
2023-03-03T04:26:07.842Z,99.90
2023-03-03T04:27:15.923Z,99.90
2023-03-03T04:28:20.510Z,99.90
2023-03-03T04:29:22.989Z,99.90
2023-03-03T04:30:25.108Z,99.90
2023-03-03T04:31:28.607Z,99.90
2023-03-03T04:32:38.603Z,99.90
2023-03-03T04:33:52.754Z,99.90
2023-03-03T04:35:07.229Z,99.90
2023-03-03T04:36:10.554Z,99.90
2023-03-03T04:37:14.717Z,99.90
2023-03-03T04:38:23.496Z,99.90
2023-03-03T04:39:29.153Z,99.90
2023-03-03T04:40:34.595Z,99.90
2023-03-03T04:41:37.183Z,99.90
2023-03-03T04:42:39.568Z,99.90
2023-03-03T04:43:44.723Z,99.90
2023-03-03T04:44:52.712Z,99.90
2023-03-03T04:45:54.898Z,99.90
2023-03-03T04:46:57.023Z,99.90
2023-03-03T04:47:59.236Z,99.90
2023-03-03T04:49:01.414Z,99.90
2023-03-03T04:50:04.110Z,99.90
2023-03-03T04:51:06.605Z,99.90
2023-03-03T04:52:09.173Z,99.90
2023-03-03T04:53:13.969Z,99.90
2023-03-03T04:54:16.042Z,99.90
2023-03-03T04:55:20.276Z,99.90
2023-03-03T04:56:23.196Z,99.90
2023-03-03T04:57:28.169Z,99.90
2023-03-03T04:58:30.305Z,99.90
2023-03-03T04:59:35.462Z,99.90
2023-03-03T05:00:39.904Z,99.90
2023-03-03T05:01:42.283Z,99.90
2023-03-03T05:02:44.480Z,99.90
2023-03-03T05:03:46.980Z,99.90
2023-03-03T05:04:54.555Z,99.90
2023-03-03T05:06:08.387Z,99.90
2023-03-03T05:07:14.697Z,99.90
2023-03-03T05:08:27.085Z,99.90
2023-03-03T05:09:31.214Z,99.90
2023-03-03T05:11:04.597Z,99.90
2023-03-03T05:12:20.231Z,99.90
2023-03-03T05:13:37.480Z,99.90
2023-03-03T05:14:52.367Z,99.90
2023-03-03T05:16:03.494Z,99.90
2023-03-03T05:17:07.982Z,99.90
2023-03-03T05:18:12.583Z,99.90
2023-03-03T05:19:16.818Z,99.90
2023-03-03T05:20:19.540Z,99.90
2023-03-03T05:21:21.910Z,99.90
2023-03-03T05:22:25.017Z,99.90
2023-03-03T05:23:29.524Z,99.90
2023-03-03T05:24:31.891Z,99.90
2023-03-03T05:25:34.019Z,99.90
2023-03-03T05:26:36.562Z,99.90
2023-03-03T05:27:38.645Z,99.90
2023-03-03T05:28:40.671Z,99.90
2023-03-03T05:29:47.201Z,99.90
2023-03-03T05:30:49.444Z,99.90
2023-03-03T05:31:51.610Z,99.90
2023-03-03T05:32:53.635Z,99.90
2023-03-03T05:33:55.775Z,99.90
2023-03-03T05:34:57.890Z,99.90
2023-03-03T05:35:59.999Z,99.90
2023-03-03T05:37:03.777Z,99.90
2023-03-03T05:38:05.867Z,99.90
2023-03-03T05:39:08.242Z,99.90
2023-03-03T05:40:11.483Z,99.90
2023-03-03T05:41:13.687Z,99.90
2023-03-03T05:42:15.955Z,99.90
2023-03-03T05:43:18.742Z,99.90
2023-03-03T05:44:20.844Z,99.90
2023-03-03T05:45:24.471Z,99.90
2023-03-03T05:46:26.586Z,99.90
2023-03-03T05:47:29.286Z,99.90
2023-03-03T05:48:31.307Z,99.90
2023-03-03T05:49:33.486Z,99.90
2023-03-03T05:50:37.578Z,99.90
2023-03-03T05:51:40.026Z,99.90
2023-03-03T05:52:42.084Z,99.90
2023-03-03T05:53:50.723Z,99.90
2023-03-03T05:54:52.775Z,99.90
2023-03-03T05:55:57.889Z,99.90
2023-03-03T05:57:00.101Z,99.90
2023-03-03T05:58:02.449Z,99.90
2023-03-03T05:59:04.440Z,99.90
2023-03-03T06:00:08.553Z,99.90
2023-03-03T06:01:13.539Z,99.90
2023-03-03T06:02:15.961Z,99.90
2023-03-03T06:03:18.147Z,99.90
2023-03-03T06:04:20.200Z,99.90
2023-03-03T06:05:22.243Z,99.90
2023-03-03T06:06:24.438Z,99.90
2023-03-03T06:07:26.886Z,99.90
2023-03-03T06:08:29.618Z,99.90
2023-03-03T06:09:32.883Z,99.90
2023-03-03T06:10:40.244Z,99.90
2023-03-03T06:11:42.204Z,99.90
2023-03-03T06:12:44.281Z,99.90
2023-03-03T06:13:46.273Z,99.90
2023-03-03T06:14:50.888Z,99.90
2023-03-03T06:16:22.642Z,99.90
2023-03-03T06:17:45.380Z,99.90
2023-03-03T06:18:47.470Z,99.90
2023-03-03T06:19:49.468Z,99.90
2023-03-03T06:20:53.393Z,99.90
2023-03-03T06:21:55.557Z,99.90
2023-03-03T06:22:57.533Z,99.90
2023-03-03T06:23:59.475Z,99.90
2023-03-03T06:25:01.519Z,99.90
2023-03-03T06:26:03.516Z,99.90
2023-03-03T06:27:05.520Z,99.90
2023-03-03T06:28:07.524Z,99.90
2023-03-03T06:29:09.540Z,99.90
2023-03-03T06:30:13.012Z,99.90
2023-03-03T06:31:14.996Z,99.90
2023-03-03T06:32:17.102Z,99.90
2023-03-03T06:33:19.210Z,99.90
2023-03-03T06:34:21.301Z,99.90
2023-03-03T06:35:23.339Z,99.90
2023-03-03T06:36:25.704Z,99.90
2023-03-03T06:37:27.725Z,99.90
2023-03-03T06:38:29.836Z,99.90
2023-03-03T06:39:31.917Z,99.90
2023-03-03T06:40:33.942Z,99.90
2023-03-03T06:41:35.860Z,99.90
2023-03-03T06:42:37.792Z,99.90
2023-03-03T06:43:39.856Z,99.90
2023-03-03T06:44:41.920Z,99.90
2023-03-03T06:45:46.361Z,99.90
2023-03-03T06:46:48.422Z,99.90
2023-03-03T06:47:50.372Z,99.90
2023-03-03T06:48:52.416Z,99.90
2023-03-03T06:49:54.368Z,99.90
2023-03-03T06:50:56.315Z,99.90
2023-03-03T06:52:01.746Z,99.90
2023-03-03T06:53:12.586Z,99.90
2023-03-03T06:54:19.900Z,99.90
2023-03-03T06:55:23.968Z,99.90
2023-03-03T06:56:26.458Z,99.90
2023-03-03T06:57:31.235Z,99.90
2023-03-03T06:58:36.199Z,99.90
2023-03-03T06:59:38.249Z,99.90
2023-03-03T07:00:44.247Z,99.90
2023-03-03T07:01:48.636Z,99.90
2023-03-03T07:03:02.016Z,99.90
2023-03-03T07:04:29.117Z,99.90
2023-03-03T07:05:31.181Z,99.90
2023-03-03T07:06:33.103Z,99.90
2023-03-03T07:07:35.008Z,99.90
2023-03-03T07:08:37.850Z,99.90
2023-03-03T07:09:39.781Z,99.90
2023-03-03T07:10:41.873Z,99.90
2023-03-03T07:11:46.253Z,99.90
2023-03-03T07:12:49.069Z,99.90
2023-03-03T07:13:53.106Z,99.90
2023-03-03T07:15:26.778Z,99.90
2023-03-03T07:16:29.046Z,99.90
2023-03-03T07:17:31.718Z,99.90
2023-03-03T07:18:55.227Z,99.90
2023-03-03T07:19:57.391Z,99.90
2023-03-03T07:21:00.153Z,99.90
2023-03-03T07:22:15.761Z,99.90
2023-03-03T07:23:24.925Z,99.90
2023-03-03T07:24:29.534Z,99.90
2023-03-03T07:25:35.451Z,99.90
2023-03-03T07:26:37.630Z,99.90
2023-03-03T07:27:39.703Z,99.90
2023-03-03T07:28:43.888Z,99.90
2023-03-03T07:29:51.661Z,99.90
2023-03-03T07:30:55.464Z,99.90
2023-03-03T07:31:59.434Z,99.90
2023-03-03T07:33:01.648Z,99.90
2023-03-03T07:34:21.809Z,99.90
2023-03-03T07:35:43.058Z,99.90
2023-03-03T07:36:45.263Z,99.90
2023-03-03T07:37:48.532Z,99.90
2023-03-03T07:38:57.499Z,99.90
2023-03-03T07:40:00.805Z,99.90
2023-03-03T07:41:05.595Z,99.90
2023-03-03T07:42:31.785Z,99.90
2023-03-03T07:43:37.224Z,99.90
2023-03-03T07:44:40.332Z,99.90
2023-03-03T07:45:43.933Z,99.90
2023-03-03T07:46:48.305Z,99.90
2023-03-03T07:47:50.276Z,99.90
2023-03-03T07:48:53.473Z,99.90
2023-03-03T07:49:57.819Z,99.90
2023-03-03T07:51:05.508Z,99.90
2023-03-03T07:52:31.581Z,99.90
2023-03-03T07:53:36.597Z,99.90
2023-03-03T07:54:45.870Z,99.90
2023-03-03T07:55:48.267Z,99.90
2023-03-03T07:56:50.330Z,99.90
2023-03-03T07:57:54.830Z,99.90
2023-03-03T07:58:57.729Z,99.90
2023-03-03T08:00:15.083Z,99.90
2023-03-03T08:01:28.408Z,99.90
2023-03-03T08:02:37.225Z,99.90
2023-03-03T08:03:39.186Z,99.90
2023-03-03T08:04:52.546Z,99.90
2023-03-03T08:05:54.725Z,99.90
2023-03-03T08:07:02.268Z,99.90
2023-03-03T08:08:09.922Z,99.90
2023-03-03T08:09:11.891Z,99.90
2023-03-03T08:10:36.809Z,99.90
2023-03-03T08:11:51.676Z,99.90
2023-03-03T08:12:54.012Z,99.90
2023-03-03T08:13:56.645Z,99.90
2023-03-03T08:15:17.797Z,99.90
2023-03-03T08:16:38.610Z,99.90
2023-03-03T08:17:43.031Z,99.90
2023-03-03T08:18:48.123Z,99.90
2023-03-03T08:19:53.064Z,99.90
2023-03-03T08:20:58.745Z,99.90
2023-03-03T08:22:15.775Z,99.90
2023-03-03T08:23:19.399Z,99.90
2023-03-03T08:24:22.055Z,99.90
2023-03-03T08:25:23.996Z,99.90
2023-03-03T08:26:27.019Z,99.90
2023-03-03T08:27:36.713Z,99.90
2023-03-03T08:28:38.869Z,99.90
2023-03-03T08:29:40.817Z,99.90
2023-03-03T08:30:43.761Z,99.90
2023-03-03T08:31:45.743Z,99.90
2023-03-03T08:32:52.804Z,99.90
2023-03-03T08:33:58.858Z,99.90
2023-03-03T08:35:01.132Z,99.90
2023-03-03T08:36:03.177Z,99.90
2023-03-03T08:37:06.169Z,99.90
2023-03-03T08:38:08.971Z,99.90
2023-03-03T08:39:11.002Z,99.90
2023-03-03T08:40:13.018Z,99.90
2023-03-03T08:41:14.971Z,99.90
2023-03-03T08:42:16.829Z,99.90
2023-03-03T08:43:21.631Z,99.90
2023-03-03T08:44:23.565Z,99.90
2023-03-03T08:45:26.815Z,99.90
2023-03-03T08:46:28.886Z,99.90
2023-03-03T08:47:30.817Z,99.90
2023-03-03T08:48:34.426Z,99.90
2023-03-03T08:49:36.351Z,99.90
2023-03-03T08:50:39.175Z,99.90
2023-03-03T08:51:41.245Z,99.90
2023-03-03T08:52:43.267Z,99.90
2023-03-03T08:53:45.146Z,99.90
2023-03-03T08:54:47.013Z,99.90
2023-03-03T08:55:49.447Z,99.90
2023-03-03T08:56:51.877Z,99.90
2023-03-03T08:57:53.795Z,99.90
2023-03-03T08:59:03.399Z,99.90
2023-03-03T09:00:09.073Z,99.90
2023-03-03T09:01:10.991Z,99.90
2023-03-03T09:02:12.923Z,99.90
2023-03-03T09:03:14.845Z,99.90
2023-03-03T09:04:16.758Z,99.90
2023-03-03T09:05:20.871Z,99.90
2023-03-03T09:06:22.787Z,99.90
2023-03-03T09:07:24.732Z,99.90
2023-03-03T09:08:26.782Z,99.90
2023-03-03T09:09:28.729Z,99.90
2023-03-03T09:10:32.141Z,99.90
2023-03-03T09:11:34.429Z,99.90
2023-03-03T09:12:48.347Z,99.90
2023-03-03T09:13:53.313Z,99.90
2023-03-03T09:15:16.792Z,99.90
2023-03-03T09:16:19.043Z,99.90
2023-03-03T09:17:36.238Z,99.90
2023-03-03T09:18:39.402Z,99.90
2023-03-03T09:19:41.331Z,99.90
2023-03-03T09:20:51.041Z,99.90
2023-03-03T09:21:55.126Z,99.90
2023-03-03T09:22:57.057Z,99.90
2023-03-03T09:23:59.961Z,99.90
2023-03-03T09:25:02.378Z,99.90
2023-03-03T09:26:28.152Z,99.90
2023-03-03T09:27:34.369Z,99.90
2023-03-03T09:28:37.615Z,99.90
2023-03-03T09:29:39.488Z,99.90
2023-03-03T09:30:48.877Z,99.90
2023-03-03T09:32:24.369Z,99.90
2023-03-03T09:33:40.043Z,99.90
2023-03-03T09:34:43.211Z,99.90
2023-03-03T09:35:46.175Z,99.90
2023-03-03T09:36:49.686Z,99.90
2023-03-03T09:37:52.928Z,99.90
2023-03-03T09:39:00.156Z,99.90
2023-03-03T09:40:33.801Z,99.90
2023-03-03T09:41:41.502Z,99.90
2023-03-03T09:43:09.606Z,99.90
2023-03-03T09:44:39.524Z,99.90
2023-03-03T09:46:01.842Z,99.90
2023-03-03T09:47:24.476Z,99.90
2023-03-03T09:48:41.117Z,99.90
2023-03-03T09:50:02.657Z,99.90
2023-03-03T09:51:09.040Z,99.90
2023-03-03T09:52:10.931Z,99.80
2023-03-03T09:53:22.140Z,99.80
2023-03-03T09:54:33.018Z,99.90
2023-03-03T09:55:48.035Z,99.90
2023-03-03T09:57:00.297Z,99.90
2023-03-03T09:58:32.196Z,99.90
2023-03-03T09:59:59.755Z,99.90
2023-03-03T10:01:07.587Z,99.90
2023-03-03T10:02:30.646Z,99.90
2023-03-03T10:04:12.081Z,99.90
2023-03-03T10:05:44.731Z,99.90
2023-03-03T10:06:55.195Z,99.90
2023-03-03T10:08:28.880Z,99.90
2023-03-03T10:09:47.504Z,99.90
2023-03-03T10:11:17.184Z,99.90
2023-03-03T10:12:24.930Z,99.90
2023-03-03T10:14:09.482Z,99.90
2023-03-03T10:15:22.187Z,99.90
2023-03-03T10:16:48.372Z,99.90
2023-03-03T10:17:53.065Z,99.90
2023-03-03T10:19:17.101Z,99.90
2023-03-03T10:20:50.669Z,99.90
2023-03-03T10:22:11.507Z,99.90
2023-03-03T10:23:34.519Z,99.90
2023-03-03T10:24:55.751Z,99.90
2023-03-03T10:26:38.411Z,99.90
2023-03-03T10:28:04.372Z,99.90
2023-03-03T10:29:30.878Z,99.90
2023-03-03T10:30:54.722Z,99.90
2023-03-03T10:32:39.199Z,99.90
2023-03-03T10:33:44.342Z,99.90
2023-03-03T10:35:23.326Z,99.90
2023-03-03T10:36:48.552Z,99.90
2023-03-03T10:38:23.298Z,99.90
2023-03-03T10:39:39.791Z,99.90
2023-03-03T10:40:54.890Z,99.90
2023-03-03T10:42:21.230Z,99.90
2023-03-03T10:44:04.110Z,99.10
2023-03-03T10:45:35.604Z,99.80
2023-03-03T10:46:46.399Z,99.80
2023-03-03T10:47:57.194Z,99.80
2023-03-03T10:49:04.667Z,99.40
2023-03-03T10:50:37.568Z,99.30
2023-03-03T10:52:08.725Z,98.70
2023-03-03T10:53:17.044Z,99.20
2023-03-03T10:54:19.031Z,99.20
2023-03-03T10:55:59.839Z,99.20
2023-03-03T10:57:26.505Z,99.20
2023-03-03T10:58:33.518Z,99.10
2023-03-03T10:59:41.452Z,98.80
2023-03-03T11:00:55.317Z,98.50
2023-03-03T11:02:07.047Z,98.20
2023-03-03T11:03:44.565Z,97.70
2023-03-03T11:05:16.430Z,97.50
2023-03-03T11:06:31.186Z,97.80
2023-03-03T11:07:44.613Z,97.70
2023-03-03T11:08:59.780Z,97.80
2023-03-03T11:10:19.915Z,98.30
2023-03-03T11:11:49.167Z,96.00
2023-03-03T11:13:20.347Z,93.60
2023-03-03T11:14:38.952Z,89.90
2023-03-03T11:16:04.460Z,80.20
2023-03-03T11:17:16.570Z,76.70
2023-03-03T11:18:36.970Z,72.90
2023-03-03T11:20:06.924Z,70.00
2023-03-03T11:21:41.733Z,61.70
2023-03-03T11:22:55.141Z,57.10
2023-03-03T11:24:23.094Z,58.30
2023-03-03T11:25:32.801Z,55.30
2023-03-03T11:26:37.526Z,56.40
2023-03-03T11:28:03.889Z,57.00
2023-03-03T11:29:47.359Z,54.10
2023-03-03T11:31:10.318Z,55.00
2023-03-03T11:32:26.105Z,54.60
2023-03-03T11:33:38.546Z,54.20
2023-03-03T11:35:00.293Z,54.10
2023-03-03T11:36:23.712Z,51.40
2023-03-03T11:37:50.169Z,49.80
2023-03-03T11:38:58.126Z,51.30
2023-03-03T11:40:11.017Z,51.70
2023-03-03T11:41:32.436Z,51.40
2023-03-03T11:42:49.522Z,49.80
2023-03-03T11:44:06.813Z,51.10
2023-03-03T11:45:16.039Z,51.30
2023-03-03T11:46:54.313Z,51.80
2023-03-03T11:48:06.637Z,50.90
2023-03-03T11:49:36.380Z,51.00
2023-03-03T11:50:58.365Z,50.70
2023-03-03T11:52:05.572Z,50.60
2023-03-03T11:53:22.762Z,49.70
2023-03-03T11:54:32.634Z,49.20
2023-03-03T11:55:38.169Z,49.20
2023-03-03T11:56:45.276Z,48.40
2023-03-03T11:58:22.457Z,48.30
2023-03-03T11:59:48.681Z,48.10
2023-03-03T12:01:06.309Z,47.80
2023-03-03T12:02:16.806Z,48.00
2023-03-03T12:03:38.105Z,47.70
2023-03-03T12:05:03.888Z,47.60
2023-03-03T12:06:31.773Z,47.50
2023-03-03T12:07:52.754Z,47.40
2023-03-03T12:09:29.854Z,45.80
2023-03-03T12:10:50.755Z,45.20
2023-03-03T12:12:12.713Z,45.80
2023-03-03T12:13:23.711Z,45.90
2023-03-03T12:14:56.906Z,46.70
2023-03-03T12:16:22.733Z,45.90
2023-03-03T12:17:36.675Z,46.60
2023-03-03T12:18:49.709Z,46.50
2023-03-03T12:20:07.377Z,46.40
2023-03-03T12:21:41.084Z,45.90
2023-03-03T12:23:15.998Z,45.00
2023-03-03T12:24:32.579Z,45.60
2023-03-03T12:25:38.440Z,45.60
2023-03-03T12:26:40.355Z,45.50
2023-03-03T12:27:54.300Z,45.10
2023-03-03T12:29:07.594Z,45.10
2023-03-03T12:30:27.368Z,44.80
2023-03-03T12:31:51.440Z,44.80
2023-03-03T12:33:23.848Z,45.30
2023-03-03T12:34:41.344Z,45.70
2023-03-03T12:35:54.886Z,45.90
2023-03-03T12:37:22.399Z,45.60
2023-03-03T12:38:50.154Z,45.00
2023-03-03T12:39:58.350Z,45.10
2023-03-03T12:41:30.810Z,45.20
2023-03-03T12:42:35.130Z,44.40
2023-03-03T12:44:05.134Z,45.00
2023-03-03T12:45:19.329Z,45.20
2023-03-03T12:46:42.434Z,45.10
2023-03-03T12:47:51.984Z,45.30
2023-03-03T12:48:53.905Z,44.90
2023-03-03T12:50:11.138Z,44.80
2023-03-03T12:51:25.616Z,45.00
2023-03-03T12:52:55.023Z,46.10
2023-03-03T12:54:36.844Z,48.60
2023-03-03T12:56:04.099Z,51.30
2023-03-03T12:57:06.083Z,52.70
2023-03-03T12:58:13.927Z,53.60
2023-03-03T12:59:21.650Z,54.20
2023-03-03T13:00:35.262Z,54.20
2023-03-03T13:02:01.582Z,54.40
2023-03-03T13:03:53.260Z,54.70
2023-03-03T13:05:10.662Z,55.60
2023-03-03T13:06:31.266Z,56.50
2023-03-03T13:07:46.214Z,56.50
2023-03-03T13:09:13.409Z,56.80
2023-03-03T13:10:59.489Z,57.20
2023-03-03T13:12:28.458Z,57.60
2023-03-03T13:13:58.100Z,57.40
2023-03-03T13:15:07.842Z,57.50
2023-03-03T13:16:22.265Z,57.20
2023-03-03T13:17:49.458Z,56.60
2023-03-03T13:18:59.892Z,55.70
2023-03-03T13:20:24.942Z,55.50
2023-03-03T13:21:32.762Z,55.80
2023-03-03T13:22:44.384Z,56.00
2023-03-03T13:24:08.031Z,56.30
2023-03-03T13:25:44.539Z,56.30
2023-03-03T13:27:14.698Z,56.60
2023-03-03T13:28:34.150Z,57.00
2023-03-03T13:30:00.891Z,57.40
2023-03-03T13:31:17.198Z,57.50
2023-03-03T13:32:31.062Z,57.40
2023-03-03T13:33:36.310Z,57.30
2023-03-03T13:34:52.101Z,57.60
2023-03-03T13:36:02.192Z,58.00
2023-03-03T13:37:15.824Z,58.30
2023-03-03T13:38:25.794Z,58.70
2023-03-03T13:39:33.713Z,58.80
2023-03-03T13:40:46.963Z,59.20
2023-03-03T13:41:57.522Z,59.70
2023-03-03T13:43:10.869Z,59.80
2023-03-03T13:44:25.890Z,60.10
2023-03-03T13:45:37.753Z,60.30
2023-03-03T13:47:02.942Z,61.00
2023-03-03T13:48:28.833Z,61.40
2023-03-03T13:49:50.177Z,62.00
2023-03-03T13:51:04.338Z,62.30
2023-03-03T13:52:13.602Z,62.70
2023-03-03T13:53:31.176Z,63.10
2023-03-03T13:54:44.861Z,63.10
2023-03-03T13:56:21.765Z,63.40
2023-03-03T13:57:50.395Z,63.70
2023-03-03T13:59:24.626Z,64.00
2023-03-03T14:01:01.098Z,64.30
2023-03-03T14:02:21.283Z,64.00
2023-03-03T14:03:50.500Z,64.00
2023-03-03T14:04:57.894Z,63.70
2023-03-03T14:06:17.105Z,63.70
2023-03-03T14:07:27.557Z,63.70
2023-03-03T14:08:58.513Z,63.80
2023-03-03T14:10:03.611Z,63.80
2023-03-03T14:11:35.246Z,64.10
2023-03-03T14:12:43.994Z,64.60
2023-03-03T14:13:54.904Z,65.00
2023-03-03T14:15:27.857Z,65.20
2023-03-03T14:17:07.617Z,65.70
2023-03-03T14:18:25.555Z,65.80
2023-03-03T14:19:43.577Z,65.90
2023-03-03T14:20:51.930Z,66.10
2023-03-03T14:22:03.284Z,66.20
2023-03-03T14:23:14.900Z,66.20
2023-03-03T14:24:26.794Z,66.40
2023-03-03T14:26:17.913Z,66.50
2023-03-03T14:27:25.274Z,66.50
2023-03-03T14:28:30.379Z,66.50
2023-03-03T14:29:33.688Z,66.70
2023-03-03T14:30:43.399Z,66.80
2023-03-03T14:31:45.847Z,67.30
2023-03-03T14:33:09.432Z,67.20
2023-03-03T14:34:23.667Z,67.40
2023-03-03T14:35:31.160Z,67.60
2023-03-03T14:36:38.552Z,68.00
2023-03-03T14:37:46.386Z,68.30
2023-03-03T14:38:48.990Z,68.60
2023-03-03T14:40:06.958Z,69.50
2023-03-03T14:41:12.168Z,68.90
2023-03-03T14:42:30.701Z,69.00
2023-03-03T14:43:38.795Z,69.40
2023-03-03T14:44:47.030Z,69.80
2023-03-03T14:45:49.739Z,69.80
2023-03-03T14:47:24.213Z,70.20
2023-03-03T14:48:27.725Z,70.60
2023-03-03T14:49:35.154Z,70.90
2023-03-03T14:50:42.495Z,71.20
2023-03-03T14:51:47.428Z,71.30
2023-03-03T14:53:18.809Z,71.50
2023-03-03T14:54:26.491Z,71.60
2023-03-03T14:55:35.875Z,71.70
2023-03-03T14:56:39.700Z,71.90
2023-03-03T14:57:47.215Z,72.10
2023-03-03T14:58:50.282Z,72.40
2023-03-03T15:00:14.877Z,72.60
2023-03-03T15:01:22.102Z,72.80
2023-03-03T15:02:36.430Z,73.00
2023-03-03T15:03:59.777Z,73.20
2023-03-03T15:05:14.789Z,73.40
2023-03-03T15:06:55.548Z,73.70
2023-03-03T15:08:08.804Z,74.10
2023-03-03T15:09:43.079Z,74.30